This is the latest recevied weather packets stored in our database for station/object KC9DRE. If no packets are shown the sender has not sent any weather packets the latest 10 day(s).
| Time | Temp. | Humidity | Pressure | Rain* | Wind** | Luminosity | Snow |
|---|---|---|---|---|---|---|---|
| 1788556604 | 37.78° C | 45% | 1014.6 hPa | 0 mm | - | 340 W/m² | - |
| 1788555087 | 37.78° C | 48% | 1015 hPa | 0 mm | - | 412 W/m² | - |
| 1788553873 | 37.78° C | 45% | 1015.1 hPa | 0 mm | - | 472 W/m² | - |
| 1788553566 | 37.22° C | 47% | 1015.1 hPa | 0 mm | - | 499 W/m² | - |
| 1788552962 | 36.67° C | 52% | 1015.1 hPa | 0 mm | - | 512 W/m² | - |
| 1788552657 | 36.11° C | 52% | 1015.4 hPa | 0 mm | - | 539 W/m² | - |
| 1788552052 | 35.56° C | 52% | 1015.5 hPa | 0 mm | - | 487 W/m² | - |
| 1788551450 | 36.11° C | 51% | 1015.7 hPa | 0 mm | - | 130 W/m² | - |
| 1788550534 | 36.67° C | 47% | 1015.9 hPa | 0 mm | - | 702 W/m² | - |
| 1788550230 | 36.67° C | 49% | 1015.7 hPa | 0 mm | - | 697 W/m² | - |
| 1788549626 | 37.78° C | 45% | 1016.2 hPa | 0 mm | - | 214 W/m² | - |
| 1788549322 | 37.78° C | 50% | 1016.1 hPa | 0 mm | - | 782 W/m² | - |
| 1788548411 | 36.67° C | 52% | 1016.4 hPa | 0 mm | - | 747 W/m² | - |
| 1788547801 | 37.78° C | 46% | 1016.3 hPa | 0 mm | - | 216 W/m² | - |
| 1788546891 | 37.22° C | 50% | 1016.6 hPa | 0 mm | - | 186 W/m² | - |
| 1788546586 | 36.67° C | 47% | 1016.6 hPa | 0 mm | - | 245 W/m² | - |
| 1788545677 | 36.67° C | 51% | 1017 hPa | 0 mm | - | 770 W/m² | - |
| 1788545372 | 36.11° C | 50% | 1016.9 hPa | 0 mm | - | 782 W/m² | - |
| 1788544166 | 36.67° C | 48% | 1017.3 hPa | 0 mm | - | 217 W/m² | - |
| 1788543861 | 36.67° C | 47% | 1017.2 hPa | 0 mm | - | 767 W/m² | - |
| 1788543557 | 36.67° C | 50% | 1017.2 hPa | 0 mm | - | 756 W/m² | - |
| 1788542949 | 36.67° C | 48% | 1017.4 hPa | 0 mm | - | 746 W/m² | - |
| 1788542343 | 36.67° C | 49% | 1017.3 hPa | 0 mm | - | 744 W/m² | - |
| 1788541125 | 37.22° C | 50% | 1017.3 hPa | 0 mm | - | 737 W/m² | - |
| 1788538405 | 36.11° C | 52% | 1017.1 hPa | 0 mm | - | 700 W/m² | - |
* Rain latest hour (hover to see other rain measurements)
** Current wind speed in m/s (hover to see current wind gust speed)